KVIH/VIH METAR and TAF weather

Enter ICAO airport designator
Station Type Date Time Source
KVIH METAR 2021/01/27 13:12 UTC NOAA

KVIH 271312Z AUTO 06003KT 1/2SM SN FZFG VV009 M02/M04 A3017 RMK AO2 P0002 T10221039


Station Type Date Time Source
KVIH Decoded METAR 2021/01/27 13:12 UTC NOAA

ROLLA/VICHY ROLLA NATIONAL, MO, United States (KVIH) 38-08N 91-46W 333M
Jan 27, 2021 - 08:12 AM EST / 2021.01.27 1312 UTC
Wind: from the ENE (060 degrees) at 3 MPH (3 KT):0
Visibility: 1/2 mile(s):0
Sky conditions: obscured
Weather: snow; freezing fog
Precipitation last hour: 0.02 inches
Temperature: 28.0 F (-2.2 C)
Dew Point: 25.0 F (-3.9 C)
Relative Humidity: 88%
Pressure (altimeter): 30.17 in. Hg (1021 hPa)
ob: KVIH 271312Z AUTO 06003KT 1/2SM SN FZFG VV009 M02/M04 A3017 RMK AO2 P0002 T10221039
cycle: 13

Station Type Date Time Source
KVIH TAF UTC NOAA

Error!

Example: see airport list